Richmond, Minnesota
Current Conditions -  °F | °C
As of 1:54 PM on Sunday 23 Nov 2014 (Local Time) from KPEX Reporting Station
Moderate Rain Moderate Rain  
Wind Chill: 27°   Ceiling: 3200
Heat Index: 33°   Visibility: 7mi
Dew Point: 33°   Wind: 8mph
Humidity: 98%   Direction: 230°SW
Pressure: 29.44"   Gusts: NA
Location:  45.45°N, 94.52°W
Report Text: KPEX 231954Z AUTO 23007KT 7SM RA OVC032 01/01 A2944 RMK AO2 P0001 T00080005
Loading
Personal Weather Stations






























Interactive Weather Map New forecast layout! Learn more

10-Day Weather Forecast

Advertisements
Track Severe Weather on mobile